Tyronza, AR (72386)

8:11 AM CDT on August 30, 2015 (GMT -0500)
APRSWXNET | | Change Station
CLOSE
Current Station
Personal Weather Station
Location: Harrisburg, AR
Elevation: 246 ft
Nearby Weather Stations

Elev 246 ft 35.67 °N, 90.71 °W | Updated 31 minutes ago

Rain
Rain
73 °F
Feels Like 71 °F
N
2
Wind Variable Wind from ESE
Gusts 0.0 mph

Today
High -- | Low -- °F
--% Chance of Precip.
Yesterday
High -- | Low -- °F
Precip. -- in
6:32 AM 7:31 PM
Full, 99% visible
Pressure 30.02 in
Visibility 10.0 miles
Clouds Mostly Cloudy 11000 ft
Heat Index 71 °F
Dew Point 70 °F
Humidity 90%
Rainfall in
Snow Depth Not available.
UV 1 out of 12
Pollen 8.70 out of 12
Air Quality Not available.
Flu Activity Not available.
METAR KAWM 301253Z AUTO 18007KT 10SM BKN110 23/22 A3003 RMK AO2 LTG DSNT SE RAB21E40 SLP166 P0000 T02280222 $
Pressure 30.02 in
Visibility 10.0 miles
Clouds Mostly Cloudy 11000 ft
Heat Index 71 °F
Dew Point 70 °F
Humidity 90%
Rainfall in
Snow Depth Not available.
UV 1 out of 12
Pollen 8.70 out of 12
Air Quality Not available.
Flu Activity Not available.
METAR KAWM 301253Z AUTO 18007KT 10SM BKN110 23/22 A3003 RMK AO2 LTG DSNT SE RAB21E40 SLP166 P0000 T02280222 $

10-Day Weather Forecast

×

Almanac

Astronomy

Aug. 30, 2015 Rise Set
Actual Time
Civil Twilight
Nautical Twilight
Astronomical Twilight
Moon
Length of Visible Light
Length of Day
Tomorrow will be .
, % of the Moon is Illuminated

Today's Extremes

State Highs State Lows

Community

WunderPhotos

Upload Photos

1,850,946 photos uploaded!

WunderBlogs® & News

Nearby

Air Quality

  Air Quality AQ Index Pollutant
Not available.

Snow Depth

Station Depth Elevation

Earthquake Activity

City Distance Mag. Time & Date
Minimum magnitude displayed is 2.5.

Coastal Water Temperatures

Place Temperature

Stations

Nearby Weather Stations

Station Location Temp. Windchill Dew Point Humidity Wind Precip. Elev Updated Type